Time;durP1;ratioP1;P1;durP2;ratioP2;P2;SDS_P1;SDS_P2;PMS_P1;PMS_P2;Temp;Humidity;BMP_temperature;BMP_pressure;BME280_temperature;BME280_humidity;BME280_pressure;Samples;Min_cycle;Max_cycle;Signal;HPM_P1;HPM_P2
2022/12/08 00:01:43;;;;;;;1.97;1.87;;;;;;;4.57;80.94;94934.63;4365488;32;20206;-61
2022/12/08 00:04:09;;;;;;;1.93;1.83;;;;;;;4.70;80.44;94934.09;4374600;32;20185;-58
2022/12/08 00:09:26;;;;;;;3.77;3.53;;;;;;;4.66;80.83;94928.56;4374202;32;20290;-59
2022/12/08 00:11:59;;;;;;;1.40;1.40;;;;;;;4.91;80.05;94926.94;4388874;32;20335;-58
2022/12/08 00:14:35;;;;;;;2.73;2.57;;;;;;;4.55;81.08;94921.78;4363505;32;20355;-58
2022/12/08 00:17:02;;;;;;;2.43;1.93;;;;;;;4.75;81.14;94927.00;4362549;32;20276;-58
2022/12/08 00:19:28;;;;;;;2.73;2.53;;;;;;;4.63;82.11;94933.56;4382278;32;20289;-59
2022/12/08 00:21:54;;;;;;;3.20;3.03;;;;;;;4.60;81.22;94924.37;4361849;32;20282;-59
2022/12/08 00:24:20;;;;;;;3.40;3.20;;;;;;;4.88;80.33;94928.25;4388326;32;20339;-58
2022/12/08 00:26:46;;;;;;;3.10;2.73;;;;;;;4.91;80.20;94925.09;4373824;32;20188;-60
2022/12/08 00:29:12;;;;;;;3.00;2.80;;;;;;;4.92;80.65;94915.38;4367947;32;20295;-59
2022/12/08 00:31:38;;;;;;;3.80;3.53;;;;;;;4.80;81.07;94921.69;4382308;32;20300;-59
2022/12/08 00:34:03;;;;;;;2.70;2.60;;;;;;;4.59;81.90;94925.41;4386506;32;20197;-59
2022/12/08 00:36:29;;;;;;;2.13;1.97;;;;;;;4.38;83.06;94916.00;4361602;32;20201;-58
2022/12/08 00:38:55;;;;;;;1.80;1.70;;;;;;;4.40;83.81;94921.78;4362432;32;20192;-59
2022/12/08 00:44:07;;;;;;;2.40;2.30;;;;;;;4.76;81.97;94914.63;4364658;32;20229;-59
2022/12/08 00:46:32;;;;;;;1.83;1.80;;;;;;;4.48;82.83;94908.13;4366429;32;20294;-59
2022/12/08 00:48:58;;;;;;;2.33;2.20;;;;;;;4.58;82.49;94910.72;4369035;32;20215;-58
2022/12/08 00:51:23;;;;;;;1.70;1.67;;;;;;;4.55;82.50;94918.34;4381702;32;20184;-59
2022/12/08 00:53:48;;;;;;;2.73;2.53;;;;;;;4.46;82.87;94912.84;4361710;32;20188;-58
2022/12/08 00:56:14;;;;;;;2.10;1.93;;;;;;;4.31;83.45;94915.50;4369579;32;20189;-59
2022/12/08 00:58:39;;;;;;;2.30;2.20;;;;;;;4.31;83.78;94908.41;4364512;32;20289;-58
2022/12/08 01:01:12;;;;;;;4.50;2.27;;;;;;;4.52;82.73;94905.75;4369550;32;20193;-59
2022/12/08 01:03:37;;;;;;;3.07;2.87;;;;;;;4.13;84.35;94907.09;4364773;32;20252;-58
2022/12/08 01:06:03;;;;;;;3.00;2.87;;;;;;;4.19;84.39;94905.25;4360478;32;20300;-58
2022/12/08 01:08:29;;;;;;;3.37;2.67;;;;;;;4.02;84.83;94908.13;4373131;32;20198;-58
2022/12/08 01:10:54;;;;;;;2.40;2.30;;;;;;;4.15;84.77;94906.84;4373015;32;20280;-58
2022/12/08 01:13:20;;;;;;;2.17;2.07;;;;;;;3.80;85.81;94904.97;4369766;32;20208;-58
2022/12/08 01:15:45;;;;;;;3.60;3.30;;;;;;;3.85;86.20;94902.34;4363211;32;20195;-58
2022/12/08 01:18:11;;;;;;;4.13;3.73;;;;;;;3.87;86.32;94905.50;4371205;32;20236;-59
2022/12/08 01:20:36;;;;;;;2.70;1.90;;;;;;;4.12;85.29;94908.16;4384389;32;20218;-62
2022/12/08 01:23:01;;;;;;;2.20;2.10;;;;;;;4.47;83.79;94907.31;4370467;32;20237;-59
2022/12/08 01:25:26;;;;;;;2.53;2.43;;;;;;;4.38;83.65;94906.28;4378448;32;20193;-58
2022/12/08 01:27:52;;;;;;;3.37;3.17;;;;;;;4.26;83.94;94903.16;4373828;32;20337;-61
2022/12/08 01:30:18;;;;;;;2.70;2.60;;;;;;;4.36;83.79;94910.25;4371106;32;20209;-58
2022/12/08 01:32:44;;;;;;;4.13;3.80;;;;;;;4.54;82.81;94904.44;4373899;32;20270;-62
2022/12/08 01:35:09;;;;;;;5.13;2.83;;;;;;;4.46;82.84;94897.88;4372692;32;20372;-58
2022/12/08 01:37:35;;;;;;;2.77;2.57;;;;;;;4.46;83.24;94892.63;4396181;32;20192;-58
2022/12/08 01:40:00;;;;;;;3.63;3.40;;;;;;;4.56;82.46;94897.09;4388666;32;20229;-58
2022/12/08 01:42:25;;;;;;;3.23;3.03;;;;;;;4.43;83.28;94901.03;4364200;32;20282;-58
2022/12/08 01:45:01;;;;;;;3.57;3.27;;;;;;;4.40;83.29;94900.75;4392626;32;20231;-58
2022/12/08 01:47:36;;;;;;;3.67;3.47;;;;;;;4.33;83.48;94892.38;4371451;32;20260;-58
2022/12/08 01:50:04;;;;;;;2.83;2.63;;;;;;;4.45;83.20;94887.63;4366231;32;20306;-58
2022/12/08 01:52:58;;;;;;;2.67;2.57;;;;;;;4.50;82.68;94885.00;4367301;32;20296;-58
2022/12/08 01:55:42;;;;;;;3.03;2.43;;;;;;;4.46;83.19;94886.59;4367449;32;20301;-58
2022/12/08 01:58:17;;;;;;;3.00;2.90;;;;;;;4.56;82.85;94880.53;4372796;32;20363;-58
2022/12/08 02:00:43;;;;;;;3.63;2.73;;;;;;;4.59;82.53;94885.22;4373122;32;20342;-59
2022/12/08 02:03:14;;;;;;;2.37;2.27;;;;;;;4.38;83.57;94873.97;4363584;32;20296;-58
2022/12/08 02:05:40;;;;;;;2.90;2.80;;;;;;;4.13;84.51;94872.19;4376704;32;20296;-58
2022/12/08 02:08:09;;;;;;;2.73;2.50;;;;;;;4.39;83.91;94875.56;4373843;32;20304;-58
2022/12/08 02:10:39;;;;;;;2.23;2.03;;;;;;;4.42;83.80;94873.19;4357257;32;20193;-58
2022/12/08 02:13:08;;;;;;;4.57;3.70;;;;;;;4.44;83.45;94870.31;4370240;32;20296;-58
2022/12/08 02:16:02;;;;;;;2.80;2.67;;;;;;;4.45;83.98;94871.87;4366881;32;20299;-58
2022/12/08 02:19:01;;;;;;;1.83;1.77;;;;;;;4.00;85.04;94867.47;4376422;32;20303;-58
2022/12/08 02:21:41;;;;;;;3.10;2.90;;;;;;;4.27;84.67;94867.19;4375367;32;20356;-58
2022/12/08 02:24:16;;;;;;;2.57;2.33;;;;;;;4.41;84.18;94858.50;4375660;32;20280;-58
2022/12/08 02:27:02;;;;;;;4.63;3.10;;;;;;;4.56;83.28;94857.69;4391505;32;20280;-58
2022/12/08 02:30:01;;;;;;;2.83;2.70;;;;;;;4.15;84.24;94854.34;4386746;32;20295;-58
2022/12/08 02:32:47;;;;;;;2.33;2.10;;;;;;;4.29;83.72;94851.97;4365030;32;22449;-58
2022/12/08 02:35:22;;;;;;;2.83;2.60;;;;;;;4.21;84.72;94841.97;4364917;32;20327;-58
2022/12/08 02:37:53;;;;;;;2.30;2.13;;;;;;;3.98;85.58;94845.94;4366086;32;20291;-58
2022/12/08 02:40:35;;;;;;;3.20;2.93;;;;;;;4.30;84.63;94848.28;4373524;32;20276;-58
2022/12/08 02:43:28;;;;;;;2.90;2.70;;;;;;;4.39;84.16;94844.84;4383403;32;20280;-61
2022/12/08 02:46:04;;;;;;;3.67;3.27;;;;;;;4.34;84.07;94847.50;4371513;32;20355;-58
2022/12/08 02:48:32;;;;;;;2.93;2.50;;;;;;;4.27;84.36;94841.72;4375485;32;20321;-58
2022/12/08 02:50:57;;;;;;;2.27;2.17;;;;;;;4.29;84.44;94836.22;4363052;32;20273;-58
2022/12/08 02:53:23;;;;;;;4.47;4.13;;;;;;;4.40;83.57;94830.66;4367590;32;20324;-58
2022/12/08 02:56:11;;;;;;;3.00;2.90;;;;;;;4.29;83.95;94836.22;4369338;32;20196;-58
2022/12/08 02:59:02;;;;;;;3.20;2.77;;;;;;;4.22;84.45;94831.22;4371115;32;20246;-58
2022/12/08 03:01:56;;;;;;;2.53;2.37;;;;;;;4.12;84.76;94839.13;4360469;32;20376;-57
2022/12/08 03:04:45;;;;;;;3.63;3.33;;;;;;;4.24;84.43;94825.72;4345046;32;20289;-58
2022/12/08 03:07:32;;;;;;;2.77;2.67;;;;;;;4.23;84.39;94824.13;4372718;32;20277;-58
2022/12/08 03:10:14;;;;;;;2.27;2.17;;;;;;;4.29;84.54;94813.38;4374320;32;20412;-61
2022/12/08 03:12:51;;;;;;;2.83;2.73;;;;;;;4.38;83.80;94810.97;4361366;32;20396;-58
2022/12/08 03:15:20;;;;;;;10.83;2.87;;;;;;;4.45;83.08;94814.09;4368949;32;20294;-58
2022/12/08 03:17:51;;;;;;;2.53;2.40;;;;;;;4.29;83.66;94816.00;4374138;32;20311;-58
2022/12/08 03:20:28;;;;;;;3.30;3.10;;;;;;;4.38;83.42;94821.47;4369185;32;20295;-58
2022/12/08 03:22:57;;;;;;;5.17;4.77;;;;;;;4.20;83.87;94820.19;4388297;32;20329;-58
2022/12/08 03:25:26;;;;;;;3.37;3.17;;;;;;;3.94;85.11;94816.84;4374306;32;20327;-58
2022/12/08 03:27:52;;;;;;;2.80;2.70;;;;;;;4.14;84.86;94811.56;4365709;32;20268;-58
2022/12/08 03:30:18;;;;;;;3.03;2.83;;;;;;;3.97;85.46;94818.13;4375682;32;20304;-58
2022/12/08 03:33:01;;;;;;;4.37;4.17;;;;;;;4.18;84.86;94819.66;4372223;32;20346;-58
2022/12/08 03:35:30;;;;;;;1.77;1.70;;;;;;;4.05;85.20;94813.16;4371041;32;20248;-58
2022/12/08 03:38:11;;;;;;;2.50;2.40;;;;;;;4.05;85.43;94813.16;4373516;32;20270;-58
2022/12/08 03:40:37;;;;;;;3.30;3.13;;;;;;;4.27;84.83;94806.81;4373475;32;20303;-63
2022/12/08 03:43:03;;;;;;;3.67;2.93;;;;;;;4.31;84.41;94802.59;4390340;32;20281;-58
2022/12/08 03:45:28;;;;;;;3.37;3.07;;;;;;;4.25;84.57;94807.06;4370775;32;20322;-59
2022/12/08 03:47:53;;;;;;;2.53;2.43;;;;;;;4.23;84.58;94798.66;4376293;32;20196;-59
2022/12/08 03:50:19;;;;;;;3.33;2.47;;;;;;;4.00;85.13;94802.66;4374634;32;20185;-59
2022/12/08 03:52:44;;;;;;;4.00;3.67;;;;;;;4.16;85.18;94802.66;4372970;32;20185;-58
2022/12/08 03:55:09;;;;;;;3.10;2.90;;;;;;;4.14;85.07;94801.06;4374750;32;20176;-58
2022/12/08 03:57:35;;;;;;;3.50;3.27;;;;;;;4.27;84.48;94794.47;4379155;32;20249;-59
2022/12/08 04:00:00;;;;;;;3.47;2.97;;;;;;;4.14;84.86;94795.81;4380620;32;20241;-58
2022/12/08 04:02:26;;;;;;;2.80;2.67;;;;;;;4.26;84.27;94797.34;4397823;32;27036;-59
2022/12/08 04:04:51;;;;;;;3.17;2.97;;;;;;;3.96;85.29;94793.72;4382336;32;20189;-59
2022/12/08 04:07:16;;;;;;;3.70;3.40;;;;;;;3.93;85.54;94785.63;4369746;32;20188;-58
2022/12/08 04:09:42;;;;;;;2.37;2.27;;;;;;;3.77;85.91;94796.09;4380185;32;20184;-59
2022/12/08 04:12:08;;;;;;;5.00;3.70;;;;;;;3.89;85.85;94792.44;4372498;32;20181;-59
2022/12/08 04:14:33;;;;;;;2.97;2.77;;;;;;;3.82;85.99;94792.69;4360240;32;20177;-58
2022/12/08 04:16:58;;;;;;;9.40;3.43;;;;;;;4.03;85.21;94793.47;4378412;32;20290;-58
2022/12/08 04:19:24;;;;;;;2.90;2.80;;;;;;;4.08;84.77;94783.75;4372793;32;20230;-58
2022/12/08 04:21:49;;;;;;;2.13;2.03;;;;;;;3.98;85.78;94791.62;4368033;32;20195;-58
2022/12/08 04:24:14;;;;;;;3.40;3.20;;;;;;;4.14;85.21;94792.41;4364505;32;20193;-58
2022/12/08 04:26:40;;;;;;;2.07;1.97;;;;;;;4.32;84.40;94794.47;4373586;32;20201;-59
2022/12/08 04:29:05;;;;;;;3.83;3.60;;;;;;;4.41;83.88;94782.34;4372166;32;20185;-59
2022/12/08 04:31:30;;;;;;;3.17;2.97;;;;;;;4.34;84.15;94781.84;4364096;32;20189;-59
2022/12/08 04:33:56;;;;;;;3.67;3.37;;;;;;;4.17;84.61;94788.44;4375722;32;20273;-58
2022/12/08 04:36:21;;;;;;;5.60;5.07;;;;;;;4.05;84.89;94788.72;4378045;32;20185;-58
2022/12/08 04:38:46;;;;;;;3.63;3.43;;;;;;;4.18;85.02;94780.31;4362677;32;20177;-58
2022/12/08 04:41:11;;;;;;;3.20;3.00;;;;;;;4.31;84.41;94773.72;4366141;32;20211;-58
2022/12/08 04:43:37;;;;;;;4.00;3.70;;;;;;;4.31;84.13;94776.34;4363252;32;20207;-61
2022/12/08 04:46:06;;;;;;;4.07;3.87;;;;;;;4.33;83.99;94769.78;4376222;32;20189;-59
2022/12/08 04:48:31;;;;;;;3.00;2.90;;;;;;;4.27;83.73;94757.72;4381374;32;20184;-58
2022/12/08 04:50:56;;;;;;;4.53;3.57;;;;;;;4.23;84.23;94776.88;4358772;32;20473;-58
2022/12/08 04:53:22;;;;;;;3.90;3.70;;;;;;;4.07;84.84;94773.50;4365791;32;20249;-58
2022/12/08 04:55:48;;;;;;;3.23;3.03;;;;;;;3.84;86.18;94769.62;4363519;32;20185;-59
2022/12/08 04:58:16;;;;;;;4.87;4.03;;;;;;;4.18;85.51;94769.00;4365203;32;20240;-58
2022/12/08 05:00:42;;;;;;;2.77;2.67;;;;;;;4.25;84.94;94759.81;4382625;32;20280;-58
2022/12/08 05:03:08;;;;;;;4.00;3.70;;;;;;;4.33;84.81;94764.53;4367638;32;20296;-58
2022/12/08 05:05:33;;;;;;;3.67;3.37;;;;;;;4.37;84.61;94762.13;4369700;32;20284;-58
2022/12/08 05:07:59;;;;;;;3.40;3.20;;;;;;;4.34;84.37;94767.94;4364116;32;20189;-58
2022/12/08 05:10:24;;;;;;;3.27;2.33;;;;;;;4.17;85.48;94768.22;4369994;32;20268;-58
2022/12/08 05:12:52;;;;;;;3.63;3.33;;;;;;;4.27;85.20;94772.69;4357620;32;20247;-59
2022/12/08 05:15:17;;;;;;;1.73;1.73;;;;;;;4.12;85.40;94771.69;4371171;32;20180;-58
2022/12/08 05:17:43;;;;;;;2.80;2.70;;;;;;;4.34;84.91;94767.94;4361964;32;20347;-59
2022/12/08 05:20:09;;;;;;;3.67;3.37;;;;;;;4.20;85.51;94772.16;4368605;32;20189;-59
2022/12/08 05:22:34;;;;;;;4.93;3.83;;;;;;;4.23;85.29;94761.12;4387264;32;20192;-58
2022/12/08 05:25:00;;;;;;;3.33;3.13;;;;;;;4.19;85.87;94767.97;4381124;32;20319;-58
2022/12/08 05:27:25;;;;;;;3.10;2.90;;;;;;;4.29;85.59;94760.88;4364462;32;20193;-58
2022/12/08 05:29:51;;;;;;;2.40;2.30;;;;;;;4.21;85.63;94764.03;4364720;32;20201;-59
2022/12/08 05:32:16;;;;;;;1.53;1.53;;;;;;;4.20;85.93;94756.41;4366090;32;20270;-58
2022/12/08 05:34:41;;;;;;;2.17;2.07;;;;;;;4.30;85.13;94756.41;4376166;32;20212;-59
2022/12/08 05:37:07;;;;;;;4.63;4.30;;;;;;;4.32;84.87;94756.91;4368379;32;20193;-60
2022/12/08 05:39:32;;;;;;;2.60;2.50;;;;;;;4.20;85.21;94756.41;4384612;32;20200;-59
2022/12/08 05:41:58;;;;;;;4.33;3.93;;;;;;;4.11;86.11;94749.09;4374875;32;20189;-59
2022/12/08 05:44:24;;;;;;;2.47;2.37;;;;;;;4.23;85.30;94748.78;4364979;32;20232;-59
2022/12/08 05:46:49;;;;;;;2.67;2.57;;;;;;;4.25;85.42;94744.06;4365290;32;20197;-59
2022/12/08 05:49:15;;;;;;;3.57;3.37;;;;;;;4.36;84.47;94750.88;4363794;32;20238;-59
2022/12/08 05:51:40;;;;;;;2.10;2.00;;;;;;;4.31;84.90;94750.88;4365808;32;20299;-59
2022/12/08 05:54:05;;;;;;;4.03;3.73;;;;;;;4.18;85.79;94742.78;4364391;32;20211;-59
2022/12/08 05:56:31;;;;;;;2.53;2.43;;;;;;;3.96;86.73;94743.09;4365802;32;20199;-59
2022/12/08 05:58:56;;;;;;;3.77;2.67;;;;;;;3.62;87.83;94756.00;4369686;32;20284;-59
2022/12/08 06:01:24;;;;;;;2.73;2.53;;;;;;;4.01;86.56;94753.56;4358503;32;20197;-59
2022/12/08 06:03:51;;;;;;;3.53;3.33;;;;;;;4.18;85.59;94742.78;4360593;32;20212;-59
2022/12/08 06:06:16;;;;;;;1.70;1.60;;;;;;;4.17;84.95;94743.81;4365151;32;20289;-58
2022/12/08 06:08:41;;;;;;;2.50;2.40;;;;;;;3.84;86.39;94746.00;4366953;32;20306;-59
2022/12/08 06:11:07;;;;;;;2.37;2.27;;;;;;;4.08;85.39;94748.84;4370011;32;20192;-59
2022/12/08 06:13:32;;;;;;;2.60;2.50;;;;;;;4.15;85.54;94738.88;4365369;32;20177;-59
2022/12/08 06:16:05;;;;;;;3.10;2.90;;;;;;;3.99;86.07;94745.97;4373443;32;20189;-59
2022/12/08 06:18:31;;;;;;;3.60;3.50;;;;;;;4.27;84.93;94741.19;4367927;32;20192;-59
2022/12/08 06:21:08;;;;;;;5.30;3.17;;;;;;;4.21;85.39;94742.25;4369830;32;20332;-59
2022/12/08 06:23:33;;;;;;;2.63;2.53;;;;;;;4.33;84.72;94740.13;4373486;32;20267;-59
2022/12/08 06:26:04;;;;;;;2.70;2.60;;;;;;;4.25;84.42;94738.81;4372353;32;20277;-59
2022/12/08 06:28:30;;;;;;;3.17;2.87;;;;;;;4.15;84.93;94749.37;4373508;32;20189;-59
2022/12/08 06:30:56;;;;;;;2.73;2.63;;;;;;;4.14;85.17;94753.81;4366242;32;20323;-58
2022/12/08 06:33:22;;;;;;;3.20;2.90;;;;;;;4.23;85.06;94740.13;4366751;32;20284;-58
2022/12/08 06:35:47;;;;;;;2.20;2.10;;;;;;;4.38;84.44;94746.12;4373801;32;20189;-58
2022/12/08 06:38:13;;;;;;;2.70;2.50;;;;;;;4.42;83.53;94749.00;4373414;32;20269;-58
2022/12/08 06:40:38;;;;;;;4.13;3.83;;;;;;;4.29;84.25;94745.12;4368375;32;20177;-59
2022/12/08 06:43:03;;;;;;;4.23;3.73;;;;;;;4.32;84.17;94739.31;4371218;32;20199;-59
2022/12/08 06:45:29;;;;;;;3.80;3.23;;;;;;;4.34;84.11;94731.97;4369540;32;20207;-58
2022/12/08 06:47:54;;;;;;;3.23;3.00;;;;;;;4.24;84.46;94734.63;4366298;32;20181;-58
2022/12/08 06:50:19;;;;;;;3.93;3.63;;;;;;;4.17;84.66;94735.94;4380930;32;20188;-58
2022/12/08 06:52:45;;;;;;;4.83;3.77;;;;;;;4.40;84.04;94730.88;4375690;32;20204;-58
2022/12/08 06:55:10;;;;;;;2.87;2.67;;;;;;;4.26;84.20;94731.72;4363565;32;20192;-58
2022/12/08 06:57:36;;;;;;;3.20;3.10;;;;;;;4.38;84.33;94727.72;4373108;32;20184;-58
2022/12/08 07:00:04;;;;;;;2.83;2.63;;;;;;;3.84;86.29;94737.34;4375427;32;20216;-58
2022/12/08 07:02:29;;;;;;;2.97;2.87;;;;;;;4.12;85.81;94731.53;4383147;32;20295;-59
2022/12/08 07:04:54;;;;;;;2.87;2.67;;;;;;;4.05;85.70;94738.88;4364450;32;20273;-58
2022/12/08 07:07:20;;;;;;;2.30;2.17;;;;;;;4.24;84.55;94742.50;4370572;32;20203;-58
2022/12/08 07:09:45;;;;;;;3.17;2.93;;;;;;;4.05;85.08;94747.53;4366606;32;20248;-58
2022/12/08 07:12:10;;;;;;;2.23;2.13;;;;;;;4.18;84.67;94742.78;4368541;32;20185;-58
2022/12/08 07:14:36;;;;;;;3.87;3.67;;;;;;;4.04;85.37;94748.59;4362009;32;20186;-58
2022/12/08 07:17:01;;;;;;;2.70;2.53;;;;;;;4.11;85.43;94745.69;4379166;32;20241;-58
2022/12/08 07:19:26;;;;;;;2.67;2.37;;;;;;;4.30;84.45;94748.53;4368539;32;20256;-58
2022/12/08 07:21:52;;;;;;;2.87;2.77;;;;;;;4.20;84.73;94744.06;4379765;32;20185;-58
2022/12/08 07:24:17;;;;;;;3.07;2.87;;;;;;;4.30;84.31;94741.44;4375618;32;20221;-58
2022/12/08 07:26:42;;;;;;;2.87;2.77;;;;;;;4.21;84.99;94752.75;4366793;32;20222;-59
2022/12/08 07:29:09;;;;;;;3.07;2.97;;;;;;;4.18;85.41;94748.81;4367829;32;20191;-58
2022/12/08 07:31:34;;;;;;;2.33;2.07;;;;;;;3.96;86.14;94750.94;4366345;32;20220;-59
2022/12/08 07:34:00;;;;;;;3.80;3.60;;;;;;;3.98;86.66;94754.88;4373350;32;20272;-41
2022/12/08 07:36:25;;;;;;;4.23;3.80;;;;;;;3.89;87.00;94751.25;4374755;32;20193;-41
2022/12/08 07:38:55;;;;;;;2.30;2.20;;;;;;;4.23;87.37;94748.00;4366249;32;20233;-42
2022/12/08 07:41:23;;;;;;;3.10;3.00;;;;;;;4.76;87.64;94741.25;4369923;32;20241;-43
2022/12/08 07:43:48;;;;;;;2.53;2.33;;;;;;;5.37;88.31;94748.75;4381232;32;20363;-44
2022/12/08 07:46:16;;;;;;;1.80;1.70;;;;;;;5.24;81.53;94747.50;4371987;32;20370;-42
2022/12/08 07:48:42;;;;;;;3.03;2.80;;;;;;;5.73;86.19;94749.25;4365999;32;20210;-42
2022/12/08 07:51:08;;;;;;;3.27;3.17;;;;;;;5.29;81.08;94747.47;4371653;32;20281;-44
2022/12/08 07:53:33;;;;;;;2.93;2.73;;;;;;;5.44;79.95;94746.56;4368010;32;20270;-41
2022/12/08 07:55:59;;;;;;;3.80;3.43;;;;;;;5.26;80.43;94748.03;4373874;32;20230;-66
2022/12/08 07:58:25;;;;;;;1.93;1.83;;;;;;;6.47;86.88;94740.06;4376542;32;20209;-65
2022/12/08 08:00:51;;;;;;;2.27;2.17;;;;;;;6.59;84.26;94737.06;4359448;32;20222;-60
2022/12/08 08:03:17;;;;;;;2.03;1.93;;;;;;;6.61;79.16;94748.09;4372236;32;20190;-62
2022/12/08 08:05:43;;;;;;;1.70;1.60;;;;;;;6.10;75.66;94751.28;4376458;32;20285;-64
2022/12/08 08:08:09;;;;;;;1.60;1.60;;;;;;;6.13;74.91;94748.09;4359009;32;20193;-64
2022/12/08 08:10:34;;;;;;;1.63;1.53;;;;;;;5.78;75.79;94754.47;4374631;32;20328;-63
2022/12/08 08:13:00;;;;;;;3.57;2.67;;;;;;;5.63;75.80;94749.31;4366887;32;20284;-63
2022/12/08 08:15:26;;;;;;;2.73;2.53;;;;;;;5.48;77.03;94739.72;4364704;32;20193;-62
2022/12/08 08:17:51;;;;;;;2.57;2.47;;;;;;;5.74;75.64;94740.28;4367208;32;20259;-62
2022/12/08 08:20:18;;;;;;;2.40;2.23;;;;;;;5.36;77.20;94747.19;4368124;32;20277;-64
2022/12/08 08:22:47;;;;;;;1.67;1.63;;;;;;;5.42;76.77;94741.59;4374056;32;20188;-65
2022/12/08 08:25:13;;;;;;;2.37;1.77;;;;;;;5.37;77.23;94741.66;4366807;32;20331;-65
2022/12/08 08:27:39;;;;;;;1.70;1.60;;;;;;;5.12;77.30;94752.34;4370572;32;20322;-65
2022/12/08 08:30:06;;;;;;;1.90;1.80;;;;;;;5.11;78.28;94745.50;4376412;32;20379;-59
2022/12/08 08:32:33;;;;;;;2.73;2.53;;;;;;;5.04;77.81;94740.53;4365172;32;20189;-62
2022/12/08 08:34:58;;;;;;;2.17;2.07;;;;;;;5.12;77.53;94741.81;4368831;32;20347;-58
2022/12/08 08:37:23;;;;;;;2.53;2.37;;;;;;;4.94;78.46;94745.09;4359256;32;20316;-59
2022/12/08 08:39:49;;;;;;;1.53;1.53;;;;;;;4.94;77.83;94743.25;4374415;32;20189;-58
2022/12/08 08:42:14;;;;;;;2.00;1.90;;;;;;;4.91;78.30;94748.25;4377419;32;20227;-58
2022/12/08 08:44:39;;;;;;;1.27;1.27;;;;;;;4.92;78.37;94747.19;4363303;32;20176;-58
2022/12/08 08:47:04;;;;;;;1.93;1.80;;;;;;;5.05;78.23;94742.13;4359135;32;20208;-59
2022/12/08 08:49:30;;;;;;;2.93;2.03;;;;;;;5.13;77.63;94738.91;4366365;32;20208;-59
2022/12/08 08:51:55;;;;;;;2.17;2.17;;;;;;;5.21;77.73;94745.41;4374100;32;20181;-61
2022/12/08 08:54:20;;;;;;;2.00;1.97;;;;;;;5.37;77.02;94744.28;4366201;32;20176;-62
2022/12/08 08:56:47;;;;;;;2.33;2.17;;;;;;;5.19;77.16;94747.56;4370170;32;20185;-63
2022/12/08 08:59:12;;;;;;;2.83;2.63;;;;;;;5.38;77.47;94743.22;4373106;32;20234;-59
2022/12/08 09:01:38;;;;;;;2.33;2.23;;;;;;;5.21;77.38;94747.25;4369510;32;20273;-62
2022/12/08 09:04:03;;;;;;;1.73;1.73;;;;;;;5.30;77.62;94746.41;4385833;32;20184;-59
2022/12/08 09:06:28;;;;;;;1.83;1.73;;;;;;;5.55;76.51;94744.66;4363257;32;20226;-59
2022/12/08 09:08:54;;;;;;;1.97;1.87;;;;;;;5.64;75.41;94738.50;4387456;32;20235;-59
2022/12/08 09:11:22;;;;;;;2.80;2.70;;;;;;;5.78;73.68;94741.31;4369060;32;20185;-62
2022/12/08 09:13:48;;;;;;;2.10;1.83;;;;;;;5.72;74.31;94740.56;4364027;32;20235;-58
2022/12/08 09:16:13;;;;;;;1.30;1.30;;;;;;;5.76;73.17;94740.78;4375354;32;20272;-58
2022/12/08 09:18:39;;;;;;;1.27;1.27;;;;;;;5.86;73.26;94735.44;4379938;32;20315;-58
2022/12/08 09:21:11;;;;;;;3.13;2.93;;;;;;;5.90;73.23;94749.63;4372920;32;20184;-59
2022/12/08 09:23:37;;;;;;;1.13;1.13;;;;;;;6.30;71.11;94743.16;4363091;32;20192;-64
2022/12/08 09:26:04;;;;;;;2.23;2.13;;;;;;;6.09;69.78;94736.56;4386081;32;20316;-60
2022/12/08 09:28:29;;;;;;;0.90;0.90;;;;;;;6.11;69.05;94737.84;4372896;32;20212;-62
2022/12/08 09:30:55;;;;;;;1.97;1.80;;;;;;;6.04;69.21;94733.97;4366320;32;20362;-64
2022/12/08 09:33:20;;;;;;;1.93;1.77;;;;;;;6.00;68.69;94731.12;4370386;32;20208;-65
2022/12/08 09:35:45;;;;;;;3.13;2.70;;;;;;;6.01;69.16;94727.44;4368395;32;20208;-63
2022/12/08 09:38:11;;;;;;;1.73;1.63;;;;;;;6.18;69.23;94727.78;4379021;32;20215;-60
2022/12/08 09:40:51;;;;;;;2.10;2.00;;;;;;;6.25;69.73;94718.72;4363979;32;20203;-61
2022/12/08 09:43:53;;;;;;;1.97;1.87;;;;;;;6.33;68.82;94718.13;4363734;32;20202;-58
2022/12/08 09:46:20;;;;;;;2.00;1.90;;;;;;;6.30;68.41;94716.06;4364653;32;20301;-62
2022/12/08 09:48:54;;;;;;;2.60;2.50;;;;;;;6.42;68.14;94708.56;4372444;32;20338;-61
2022/12/08 09:51:24;;;;;;;4.00;1.83;;;;;;;6.67;67.83;94712.69;4369350;32;20284;-61
2022/12/08 09:54:14;;;;;;;2.70;2.53;;;;;;;6.81;65.25;94708.31;4372545;32;20289;-61
2022/12/08 09:56:40;;;;;;;2.10;2.00;;;;;;;6.44;65.99;94709.06;4366603;32;20329;-60
2022/12/08 09:59:14;;;;;;;1.80;1.70;;;;;;;6.60;66.16;94699.88;4379153;32;20285;-61
2022/12/08 10:01:40;;;;;;;2.23;2.13;;;;;;;6.64;67.23;94693.00;4374423;32;20236;-60
2022/12/08 10:04:37;;;;;;;2.60;2.40;;;;;;;6.97;65.15;94690.44;4375450;32;20371;-61
2022/12/08 10:07:12;;;;;;;2.00;1.83;;;;;;;6.50;65.28;94689.47;4366234;32;20193;-60
2022/12/08 10:09:46;;;;;;;2.00;1.90;;;;;;;6.53;65.62;94681.00;4355478;32;20280;-62
2022/12/08 10:12:23;;;;;;;3.83;3.53;;;;;;;6.53;65.93;94675.72;4377159;32;20314;-57
2022/12/08 10:15:18;;;;;;;1.90;1.77;;;;;;;6.91;65.63;94671.25;4374751;32;20285;-63
2022/12/08 10:17:49;;;;;;;2.47;2.23;;;;;;;7.17;64.93;94677.72;4361318;32;20352;-60
2022/12/08 10:20:18;;;;;;;2.23;2.13;;;;;;;7.28;63.40;94673.06;4372901;32;20316;-61
2022/12/08 10:22:47;;;;;;;2.37;2.27;;;;;;;7.32;63.06;94663.50;4377427;32;20285;-60
2022/12/08 10:25:24;;;;;;;2.13;2.03;;;;;;;7.16;63.94;94662.19;4370245;32;20326;-62
2022/12/08 10:27:53;;;;;;;1.97;1.97;;;;;;;7.37;62.54;94663.44;4371670;32;20285;-59
2022/12/08 10:30:21;;;;;;;2.43;2.23;;;;;;;7.23;63.02;94657.34;4369151;32;20280;-61
2022/12/08 10:32:52;;;;;;;2.17;2.07;;;;;;;6.88;64.46;94651.50;4371923;32;20289;-60
2022/12/08 10:35:20;;;;;;;2.20;2.10;;;;;;;7.15;63.58;94650.06;4371840;32;20284;-60
2022/12/08 10:37:59;;;;;;;3.10;2.87;;;;;;;7.40;62.07;94648.88;4363793;32;20303;-58
2022/12/08 10:40:34;;;;;;;2.30;2.20;;;;;;;7.32;67.07;94650.31;4371952;32;20337;-61
2022/12/08 10:43:01;;;;;;;2.43;2.33;;;;;;;6.90;71.13;94649.38;4388856;32;20304;-60
2022/12/08 10:45:37;;;;;;;3.27;2.80;;;;;;;7.08;71.78;94639.09;4371252;32;20307;-59
2022/12/08 10:48:08;;;;;;;3.90;3.63;;;;;;;7.10;72.49;94634.31;4362452;32;20319;-60
2022/12/08 10:50:45;;;;;;;4.43;3.20;;;;;;;7.13;72.24;94631.88;4374687;32;20341;-59
2022/12/08 10:53:13;;;;;;;2.00;1.90;;;;;;;6.91;72.90;94639.62;4367632;32;20303;-58
2022/12/08 10:55:43;;;;;;;2.97;2.77;;;;;;;6.42;74.65;94632.16;4364091;32;20391;-58
2022/12/08 10:58:30;;;;;;;2.73;2.57;;;;;;;6.40;74.83;94624.53;4369709;32;20283;-59
2022/12/08 11:01:20;;;;;;;4.47;2.80;;;;;;;6.27;75.62;94622.59;4355909;32;20323;-61
2022/12/08 11:03:47;;;;;;;3.63;3.23;;;;;;;6.42;74.88;94621.63;4360941;32;20380;-60
2022/12/08 11:06:24;;;;;;;2.97;2.67;;;;;;;6.52;72.93;94621.47;4386299;32;20292;-57
2022/12/08 11:08:57;;;;;;;2.70;2.53;;;;;;;6.19;73.31;94617.97;4361822;32;20294;-59
2022/12/08 11:11:43;;;;;;;2.57;2.47;;;;;;;6.30;73.41;94618.59;4370374;32;20375;-64
2022/12/08 11:14:17;;;;;;;3.50;3.30;;;;;;;6.34;74.22;94609.06;4377747;32;20295;-58
2022/12/08 11:16:43;;;;;;;2.73;2.63;;;;;;;5.95;75.47;94627.72;4367900;32;20276;-60
2022/12/08 11:19:15;;;;;;;3.83;3.47;;;;;;;6.22;75.40;94612.13;4366722;32;20299;-59
2022/12/08 11:21:41;;;;;;;1.97;1.87;;;;;;;5.95;75.72;94606.66;4364507;32;20204;-58
2022/12/08 11:24:20;;;;;;;3.53;3.27;;;;;;;5.92;76.15;94602.75;4368783;32;20358;-62
2022/12/08 11:27:03;;;;;;;6.57;4.43;;;;;;;5.88;76.77;94604.34;4369724;32;20351;-61
2022/12/08 11:29:34;;;;;;;2.10;2.00;;;;;;;6.02;76.31;94602.63;4381737;32;20284;-58
2022/12/08 11:32:10;;;;;;;3.10;2.90;;;;;;;6.02;76.25;94600.00;4377656;32;20338;-59
2022/12/08 11:34:49;;;;;;;3.43;3.23;;;;;;;5.88;76.30;94606.97;4365326;32;20269;-58
2022/12/08 11:37:44;;;;;;;4.93;4.47;;;;;;;5.78;77.52;94599.22;4371369;32;20311;-60
2022/12/08 11:40:33;;;;;;;3.67;3.43;;;;;;;6.11;76.67;94594.88;4353970;32;20333;-62
2022/12/08 11:43:12;;;;;;;1.83;1.73;;;;;;;6.01;75.94;94590.53;4368801;32;20287;-62
2022/12/08 11:45:39;;;;;;;3.07;2.90;;;;;;;5.95;75.88;94578.50;4354526;32;20281;-64
2022/12/08 11:48:21;;;;;;;5.87;3.93;;;;;;;5.66;77.19;94583.00;4370688;32;20276;-58
2022/12/08 11:50:52;;;;;;;3.10;2.90;;;;;;;5.90;76.64;94583.03;4368928;32;20323;-60
2022/12/08 11:53:21;;;;;;;2.93;2.83;;;;;;;5.92;75.50;94578.28;4366549;32;20285;-62
2022/12/08 11:55:56;;;;;;;3.50;3.30;;;;;;;5.79;76.11;94583.13;4381513;32;20291;-61
2022/12/08 11:58:26;;;;;;;5.80;3.10;;;;;;;6.01;75.91;94576.59;4375903;32;20271;-59